Terminal Aerodrome Forecast
Issued by NWS Sioux Falls, SD

Home | Current Version | Previous Version | Text Only | Print | Product List | Glossary On
Versions: 1 2 3 4 5 6 7 8 9 10 11 12 13
000
FTUS43 KFSD 240520
TAFHON
TAF
KHON 240520Z 2406/2506 11009KT P6SM -SHRA OVC025
     FM240800 08007KT P6SM -SHRA OVC015
     FM241100 08011KT 4SM -SHRA BR OVC008
     FM241800 08011KT P6SM OVC015
     FM242100 06006KT P6SM OVC025
     FM250100 04005KT P6SM OVC050=

USA.gov is the U.S. government's official web portal to all federal, state and local government web resources and services.